Airfield :
LOGIN :

Register | Disclaimer

   EN    FR    IT 

 










Legend :    VFR   Marginal VFR   IFR   Intensive IFR   Very Intensive IFR
Visi :
Ceiling :
>= 8 km
>= 3000ft
5 to 8 km
1000 to 3000 ft
1500m to 5 km
500 to 1000 ft
800 to 1500m
200 to 500 ft
< 800m
< 200 ft
Symbols :   Thunderstorms  Fog  Heavy snow  Heavy precipitations  Wind > 20 kt
SIGMETs :     Misc.  Thunderstorms  Icing  Turbulence  Mountain Waves  Volcanic Ashes






- Airport Elevation : 70 ft
- IATA code : LEI


LEAM - Almeria

CURRENT METAR :
  • 011230Z 17003KT 140V200 9999 FEW020 16/08 Q1012

EXPIRED METARs :
  • 011200Z VRB02KT 9999 FEW020 17/08 Q1013
  • 011130Z VRB03KT 9999 FEW020 17/08 Q1013
  • 011100Z 31005KT 280V340 9999 FEW012 16/07 Q1014
  • 011030Z 32008KT 9999 FEW012 15/07 Q1014
  • 011000Z 32009KT 9999 FEW012 14/07 Q1014

TAF TAF LEAM
Valid from the 01 at 12:00 until the 02 at 12:00 UTC


011100Z 0112/0212 08010KT 9999 SCT030 BKN070 TX18/0114Z TN11/0206Z
PROB30
TEMPO 0112/0113 36006KT
BECMG 0118/0121 34008KT
BECMG 0206/0209 04016KT



MET'MAP, your aeronautical weather chart ! - Copyright ORBIFLY December 2007 - Disclaimer

ORBIFLY MET'MAP TEAM :

Programming & Development : Alexandra Zaïnal
Original concept : Baudouin d'Aumeries
Technical & hardware support : Manuel Goepfert
Assistance : Marc-Olivier Méhu




SOURCES & CREDITS :

   NOAA